createdAt,value
2023-04-18T00:00:35.329Z,0.00
2023-04-18T00:01:35.234Z,0.00
2023-04-18T00:02:35.345Z,0.00
2023-04-18T00:03:35.390Z,0.00
2023-04-18T00:04:35.239Z,0.00
2023-04-18T00:05:35.010Z,0.00
2023-04-18T00:06:34.934Z,0.00
2023-04-18T00:07:34.895Z,0.00
2023-04-18T00:08:34.798Z,0.00
2023-04-18T00:09:34.751Z,0.00
2023-04-18T00:10:34.716Z,0.00
2023-04-18T00:11:34.637Z,0.00
2023-04-18T00:12:34.574Z,0.00
2023-04-18T00:13:34.505Z,0.00
2023-04-18T00:14:34.449Z,0.00
2023-04-18T00:15:34.390Z,0.00
2023-04-18T00:16:34.332Z,0.00
2023-04-18T00:17:34.307Z,0.00
2023-04-18T00:18:34.171Z,0.00
2023-04-18T00:19:34.134Z,0.00
2023-04-18T00:20:34.063Z,0.00
2023-04-18T00:21:33.999Z,0.00
2023-04-18T00:22:33.944Z,0.00
2023-04-18T00:23:33.908Z,0.00
2023-04-18T00:24:33.842Z,0.00
2023-04-18T00:25:33.751Z,0.00
2023-04-18T00:26:33.657Z,0.00
2023-04-18T00:27:33.631Z,0.00
2023-04-18T00:29:42.771Z,0.00
2023-04-18T00:30:43.821Z,0.00
2023-04-18T00:31:43.642Z,0.00
2023-04-18T00:32:43.665Z,0.00
2023-04-18T00:33:43.530Z,0.00
2023-04-18T00:34:43.513Z,0.00
2023-04-18T00:35:43.440Z,0.00
2023-04-18T00:36:43.348Z,0.00
2023-04-18T00:37:43.277Z,0.00
2023-04-18T00:38:43.261Z,0.00
2023-04-18T00:39:43.127Z,0.00
2023-04-18T00:40:43.110Z,0.00
2023-04-18T00:41:43.030Z,0.00
2023-04-18T00:42:42.947Z,0.00
2023-04-18T00:43:42.928Z,0.00
2023-04-18T00:44:42.810Z,0.00
2023-04-18T00:45:42.774Z,0.00
2023-04-18T00:47:03.698Z,0.00
2023-04-18T00:47:42.660Z,0.00
2023-04-18T00:48:42.585Z,0.00
2023-04-18T00:49:42.511Z,0.00
2023-04-18T00:50:42.430Z,0.00
2023-04-18T00:51:42.432Z,0.00
2023-04-18T00:52:42.337Z,0.00
2023-04-18T00:53:42.268Z,0.00
2023-04-18T00:54:42.204Z,0.00
2023-04-18T00:55:42.164Z,0.00
2023-04-18T00:56:42.120Z,0.00
2023-04-18T00:57:42.019Z,0.00
2023-04-18T01:02:09.662Z,0.00
2023-04-18T01:03:10.865Z,0.00
2023-04-18T01:04:10.504Z,0.00
2023-04-18T01:05:10.399Z,0.00
2023-04-18T01:06:10.375Z,0.00
2023-04-18T01:07:11.149Z,0.00
2023-04-18T01:08:10.222Z,0.00
2023-04-18T01:09:10.172Z,0.00
2023-04-18T01:10:10.167Z,0.00
2023-04-18T01:11:10.032Z,0.00
2023-04-18T01:12:09.950Z,0.00
2023-04-18T01:13:09.931Z,0.00
2023-04-18T01:14:09.872Z,0.00
2023-04-18T01:15:09.835Z,0.00
2023-04-18T01:16:09.770Z,0.00
2023-04-18T01:17:09.654Z,0.00
2023-04-18T01:18:09.604Z,0.00
2023-04-18T01:19:30.542Z,0.00
2023-04-18T01:20:09.471Z,0.00
2023-04-18T01:21:09.374Z,0.00
2023-04-18T01:22:09.392Z,0.00
2023-04-18T01:23:09.283Z,0.00
2023-04-18T01:24:09.215Z,0.00
2023-04-18T01:25:09.190Z,0.00
2023-04-18T01:26:09.061Z,0.00
2023-04-18T01:27:09.060Z,0.00
2023-04-18T01:28:08.996Z,0.00
2023-04-18T01:29:08.900Z,0.00
2023-04-18T01:30:08.837Z,0.00
2023-04-18T01:31:08.832Z,0.00
2023-04-18T01:32:08.741Z,0.00
2023-04-18T01:33:08.647Z,0.00
2023-04-18T01:34:08.610Z,0.00
2023-04-18T01:35:08.517Z,0.00
2023-04-18T01:36:08.431Z,0.00
2023-04-18T01:37:08.432Z,0.00
2023-04-18T01:38:08.336Z,0.00
2023-04-18T01:39:08.283Z,0.00
2023-04-18T01:40:08.238Z,0.00
2023-04-18T01:41:08.186Z,0.00
2023-04-18T01:42:08.082Z,0.00
2023-04-18T01:43:08.029Z,0.00
2023-04-18T01:44:07.959Z,0.00
2023-04-18T01:45:07.891Z,0.00
2023-04-18T01:46:07.847Z,0.00
2023-04-18T01:47:07.785Z,0.00
2023-04-18T01:48:07.700Z,0.00
2023-04-18T01:49:07.652Z,0.00
2023-04-18T01:50:07.567Z,0.00
2023-04-18T01:51:07.499Z,0.00
2023-04-18T01:52:07.467Z,0.00
2023-04-18T01:53:07.408Z,0.00
2023-04-18T01:54:07.302Z,0.00
2023-04-18T01:56:16.493Z,0.00
2023-04-18T01:57:17.377Z,0.00
2023-04-18T01:58:17.351Z,0.00
2023-04-18T01:59:17.280Z,0.00
2023-04-18T02:00:17.239Z,0.00
2023-04-18T02:01:17.196Z,0.00
2023-04-18T02:02:17.162Z,0.00
2023-04-18T02:03:17.222Z,0.00
2023-04-18T02:04:17.196Z,0.00
2023-04-18T02:05:16.929Z,0.00
2023-04-18T02:06:16.855Z,0.00
2023-04-18T02:07:16.873Z,0.00
2023-04-18T02:08:16.683Z,0.00
2023-04-18T02:09:16.662Z,0.00
2023-04-18T02:10:16.609Z,0.00
2023-04-18T02:11:16.516Z,0.00
2023-04-18T02:12:16.471Z,0.00
2023-04-18T02:13:16.444Z,0.00
2023-04-18T02:14:16.406Z,0.00
2023-04-18T02:15:16.266Z,0.00
2023-04-18T02:16:16.304Z,0.00
2023-04-18T02:17:16.116Z,0.00
2023-04-18T02:18:16.089Z,0.00
2023-04-18T02:19:16.069Z,0.00
2023-04-18T02:20:15.948Z,0.00
2023-04-18T02:21:15.892Z,0.00
2023-04-18T02:22:15.831Z,0.00
2023-04-18T02:23:15.784Z,0.00
2023-04-18T02:24:15.853Z,0.00
2023-04-18T02:25:15.678Z,0.00
2023-04-18T02:26:15.595Z,0.00
2023-04-18T02:27:15.504Z,0.00
2023-04-18T02:28:15.450Z,0.00
2023-04-18T02:29:15.382Z,0.00
2023-04-18T02:30:15.329Z,0.00
2023-04-18T02:31:36.263Z,0.00
2023-04-18T02:32:15.216Z,0.00
2023-04-18T02:33:15.129Z,0.00
2023-04-18T02:34:15.189Z,0.00
2023-04-18T02:35:15.004Z,0.00
2023-04-18T02:36:14.960Z,0.00
2023-04-18T02:37:14.889Z,0.00
2023-04-18T02:38:14.783Z,0.00
2023-04-18T02:39:14.749Z,0.00
2023-04-18T02:40:14.660Z,0.00
2023-04-18T02:41:14.645Z,0.00
2023-04-18T02:42:14.557Z,0.00
2023-04-18T02:43:14.512Z,0.00
2023-04-18T02:44:14.687Z,0.00
2023-04-18T02:45:14.373Z,0.00
2023-04-18T02:46:14.340Z,0.00
2023-04-18T02:47:14.247Z,0.00
2023-04-18T02:48:14.216Z,0.00
2023-04-18T02:49:14.126Z,0.00
2023-04-18T02:50:14.050Z,0.00
2023-04-18T02:51:14.010Z,0.00
2023-04-18T02:52:13.952Z,0.00
2023-04-18T02:53:13.888Z,0.00
2023-04-18T02:54:14.001Z,0.00
2023-04-18T02:55:13.722Z,0.00
2023-04-18T02:56:13.674Z,0.00
2023-04-18T02:57:13.609Z,0.00
2023-04-18T02:58:13.547Z,0.00
2023-04-18T02:59:13.476Z,0.00
2023-04-18T03:00:13.439Z,0.00
2023-04-18T03:01:13.432Z,0.00
2023-04-18T03:02:13.350Z,0.00
2023-04-18T03:03:13.252Z,0.00
2023-04-18T03:04:13.383Z,0.00
2023-04-18T03:05:13.153Z,0.00
2023-04-18T03:06:13.010Z,0.00
2023-04-18T03:08:22.202Z,0.00
2023-04-18T03:09:23.122Z,0.00
2023-04-18T03:10:23.077Z,0.00
2023-04-18T03:11:22.977Z,0.00
2023-04-18T03:12:22.950Z,0.00
2023-04-18T03:13:22.896Z,0.00
2023-04-18T03:14:22.812Z,0.00
2023-04-18T03:15:22.742Z,0.00
2023-04-18T03:16:22.835Z,0.00
2023-04-18T03:17:22.687Z,0.00
2023-04-18T03:18:22.552Z,0.00
2023-04-18T03:19:22.542Z,0.00
2023-04-18T03:20:22.428Z,0.00
2023-04-18T03:21:22.366Z,0.00
2023-04-18T03:22:22.277Z,0.00
2023-04-18T03:23:22.241Z,0.00
2023-04-18T03:24:22.162Z,0.00
2023-04-18T03:25:22.133Z,0.00
2023-04-18T03:26:22.022Z,0.00
2023-04-18T03:27:22.021Z,0.00
2023-04-18T03:28:21.929Z,0.00
2023-04-18T03:29:21.838Z,0.00
2023-04-18T03:30:21.792Z,0.00
2023-04-18T03:31:21.800Z,0.00
2023-04-18T03:32:21.701Z,0.00
2023-04-18T03:33:21.597Z,0.00
2023-04-18T03:34:21.508Z,0.00
2023-04-18T03:35:21.509Z,0.00
2023-04-18T03:36:21.415Z,0.00
2023-04-18T03:37:21.355Z,0.00
2023-04-18T03:38:21.337Z,0.00
2023-04-18T03:39:21.246Z,0.00
2023-04-18T03:40:21.138Z,0.00
2023-04-18T03:41:21.096Z,0.00
2023-04-18T03:42:21.036Z,0.00
2023-04-18T03:44:30.192Z,0.00
2023-04-18T03:45:31.130Z,0.00
2023-04-18T03:46:31.128Z,0.00
2023-04-18T03:47:31.055Z,0.00
2023-04-18T03:48:30.940Z,0.00
2023-04-18T03:49:30.862Z,0.00
2023-04-18T03:50:30.784Z,0.00
2023-04-18T03:51:30.766Z,0.00
2023-04-18T03:52:30.684Z,0.00
2023-04-18T03:53:30.650Z,0.00
2023-04-18T03:54:30.538Z,1.00
2023-04-18T03:55:30.509Z,0.00
2023-04-18T03:56:30.428Z,0.00
2023-04-18T03:57:30.345Z,0.00
2023-04-18T03:58:30.254Z,1.00
2023-04-18T03:59:30.215Z,0.00
2023-04-18T04:00:30.159Z,1.00
2023-04-18T04:01:30.119Z,1.00
2023-04-18T04:02:30.165Z,1.00
2023-04-18T04:03:30.006Z,1.00
2023-04-18T04:04:29.896Z,2.00
2023-04-18T04:05:29.843Z,2.00
2023-04-18T04:06:29.776Z,2.00
2023-04-18T04:07:29.709Z,2.00
2023-04-18T04:08:29.651Z,1.00
2023-04-18T04:09:29.584Z,1.00
2023-04-18T04:10:29.499Z,2.00
2023-04-18T04:11:29.456Z,1.00
2023-04-18T04:12:29.336Z,1.00
2023-04-18T04:13:29.600Z,7.00
2023-04-18T04:14:29.239Z,8.00
2023-04-18T04:15:29.175Z,7.00
2023-04-18T04:16:29.146Z,3.00
2023-04-18T04:17:29.085Z,6.00
2023-04-18T04:18:28.974Z,6.00
2023-04-18T04:19:28.899Z,9.00
2023-04-18T04:20:28.878Z,9.00
2023-04-18T04:21:28.820Z,9.00
2023-04-18T04:22:28.729Z,9.00
2023-04-18T04:23:28.636Z,10.00
2023-04-18T04:24:28.626Z,10.00
2023-04-18T04:25:28.549Z,9.00
2023-04-18T04:26:28.479Z,5.00
2023-04-18T04:27:28.433Z,9.00
2023-04-18T04:28:28.376Z,9.00
2023-04-18T04:29:28.279Z,9.00
2023-04-18T04:30:28.258Z,15.00
2023-04-18T04:31:28.144Z,15.00
2023-04-18T04:32:28.168Z,15.00
2023-04-18T04:33:28.039Z,17.00
2023-04-18T04:34:27.933Z,17.00
2023-04-18T04:35:27.902Z,16.00
2023-04-18T04:36:27.833Z,20.00
2023-04-18T04:37:48.754Z,21.00
2023-04-18T04:38:27.708Z,20.00
2023-04-18T04:39:27.695Z,22.00
2023-04-18T04:40:27.584Z,18.00
2023-04-18T04:41:27.501Z,18.00
2023-04-18T04:42:27.433Z,30.00
2023-04-18T04:43:27.410Z,29.00
2023-04-18T04:44:27.331Z,25.00
2023-04-18T04:45:27.291Z,24.00
2023-04-18T04:46:27.338Z,31.00
2023-04-18T04:47:27.209Z,28.00
2023-04-18T04:48:27.110Z,34.00
2023-04-18T04:49:27.025Z,36.00
2023-04-18T04:50:26.956Z,38.00
2023-04-18T04:51:26.887Z,34.00
2023-04-18T04:52:26.824Z,38.00
2023-04-18T04:53:26.768Z,42.00
2023-04-18T04:54:26.673Z,41.00
2023-04-18T04:55:47.637Z,52.00
2023-04-18T04:56:26.609Z,64.00
2023-04-18T04:57:26.533Z,76.00
2023-04-18T04:58:26.445Z,83.00
2023-04-18T04:59:26.356Z,82.00
2023-04-18T05:00:26.311Z,71.00
2023-04-18T05:01:26.284Z,71.00
2023-04-18T05:02:26.307Z,87.00
2023-04-18T05:03:26.239Z,102.00
2023-04-18T05:04:26.287Z,92.00
2023-04-18T05:05:26.005Z,85.00
2023-04-18T05:06:25.975Z,84.00
2023-04-18T05:07:25.894Z,76.00
2023-04-18T05:08:25.842Z,79.00
2023-04-18T05:09:25.769Z,100.00
2023-04-18T05:10:25.718Z,129.00
2023-04-18T05:11:25.637Z,138.00
2023-04-18T05:12:25.633Z,166.00
2023-04-18T05:14:34.667Z,132.00
2023-04-18T05:15:35.591Z,135.00
2023-04-18T05:16:35.561Z,130.00
2023-04-18T05:17:35.584Z,120.00
2023-04-18T05:18:35.372Z,127.00
2023-04-18T05:19:35.358Z,120.00
2023-04-18T05:20:35.288Z,131.00
2023-04-18T05:21:35.177Z,134.00
2023-04-18T05:22:35.172Z,164.00
2023-04-18T05:23:35.065Z,178.00
2023-04-18T05:24:35.022Z,167.00
2023-04-18T05:25:34.975Z,178.00
2023-04-18T05:26:34.864Z,164.00
2023-04-18T05:27:34.831Z,163.00
2023-04-18T05:28:34.770Z,153.00
2023-04-18T05:29:34.702Z,179.00
2023-04-18T05:30:34.617Z,190.00
2023-04-18T05:31:34.650Z,215.00
2023-04-18T05:32:34.601Z,200.00
2023-04-18T05:33:34.456Z,210.00
2023-04-18T05:34:35.315Z,248.00
2023-04-18T05:35:34.291Z,219.00
2023-04-18T05:36:34.290Z,211.00
2023-04-18T05:37:34.206Z,212.00
2023-04-18T05:38:34.129Z,178.00
2023-04-18T05:39:34.061Z,200.00
2023-04-18T05:40:34.008Z,179.00
2023-04-18T05:41:33.970Z,187.00
2023-04-18T05:42:33.904Z,234.00
2023-04-18T05:43:33.830Z,239.00
2023-04-18T05:44:33.751Z,251.00
2023-04-18T05:45:33.700Z,265.00
2023-04-18T05:46:33.622Z,221.00
2023-04-18T05:47:33.703Z,218.00
2023-04-18T05:48:33.500Z,244.00
2023-04-18T05:49:33.471Z,230.00
2023-04-18T05:50:33.351Z,198.00
2023-04-18T05:51:33.325Z,196.00
2023-04-18T05:52:33.239Z,212.00
2023-04-18T05:53:33.183Z,206.00
2023-04-18T05:54:33.115Z,202.00
2023-04-18T05:55:33.096Z,185.00
2023-04-18T05:56:32.961Z,166.00
2023-04-18T05:57:32.948Z,195.00
2023-04-18T05:58:32.858Z,203.00
2023-04-18T05:59:32.784Z,225.00
2023-04-18T06:00:32.730Z,230.00
2023-04-18T06:01:32.700Z,234.00
2023-04-18T06:02:32.640Z,230.00
2023-04-18T06:03:32.736Z,215.00
2023-04-18T06:04:32.712Z,229.00
2023-04-18T06:05:32.513Z,235.00
2023-04-18T06:06:32.324Z,213.00
2023-04-18T06:07:32.297Z,273.00
2023-04-18T06:08:32.210Z,286.00
2023-04-18T06:09:32.137Z,259.00
2023-04-18T06:10:32.127Z,260.00
2023-04-18T06:11:32.027Z,287.00
2023-04-18T06:12:31.957Z,273.00
2023-04-18T06:13:31.923Z,287.00
2023-04-18T06:14:31.853Z,269.00
2023-04-18T06:15:31.772Z,272.00
2023-04-18T06:16:31.728Z,249.00
2023-04-18T06:17:31.674Z,266.00
2023-04-18T06:18:31.575Z,319.00
2023-04-18T06:19:31.583Z,356.00
2023-04-18T06:20:31.460Z,358.00
2023-04-18T06:21:31.396Z,356.00
2023-04-18T06:22:31.358Z,402.00
2023-04-18T06:23:31.260Z,433.00
2023-04-18T06:24:31.355Z,359.00
2023-04-18T06:26:40.314Z,416.00
2023-04-18T06:27:41.270Z,391.00
2023-04-18T06:28:41.206Z,450.00
2023-04-18T06:29:41.085Z,463.00
2023-04-18T06:30:41.071Z,412.00
2023-04-18T06:31:41.045Z,381.00
2023-04-18T06:32:40.958Z,385.00
2023-04-18T06:33:40.830Z,416.00
2023-04-18T06:34:40.768Z,440.00
2023-04-18T06:35:40.702Z,385.00
2023-04-18T06:36:40.638Z,357.00
2023-04-18T06:37:40.605Z,391.00
2023-04-18T06:38:40.563Z,427.00
2023-04-18T06:39:40.496Z,422.00
2023-04-18T06:40:40.414Z,423.00
2023-04-18T06:41:40.352Z,363.00
2023-04-18T06:42:40.291Z,365.00
2023-04-18T06:44:03.831Z,414.00
2023-04-18T06:44:40.134Z,425.00
2023-04-18T06:45:40.152Z,424.00
2023-04-18T06:46:40.040Z,436.00
2023-04-18T06:47:40.015Z,450.00
2023-04-18T06:48:39.925Z,412.00
2023-04-18T06:49:39.852Z,433.00
2023-04-18T06:50:39.747Z,466.00
2023-04-18T06:51:39.710Z,483.00
2023-04-18T06:52:39.676Z,430.00
2023-04-18T06:53:39.582Z,435.00
2023-04-18T06:54:39.490Z,413.00
2023-04-18T06:55:39.503Z,347.00
2023-04-18T06:56:39.367Z,374.00
2023-04-18T06:57:39.330Z,489.00
2023-04-18T06:58:39.262Z,457.00
2023-04-18T06:59:39.222Z,434.00
2023-04-18T07:00:39.165Z,482.00
2023-04-18T07:01:39.127Z,556.00
2023-04-18T07:02:39.108Z,611.00
2023-04-18T07:03:39.010Z,701.00
2023-04-18T07:04:39.022Z,656.00
2023-04-18T07:05:38.829Z,552.00
2023-04-18T07:06:38.747Z,638.00
2023-04-18T07:07:38.701Z,670.00
2023-04-18T07:08:38.651Z,583.00
2023-04-18T07:09:38.582Z,655.00
2023-04-18T07:10:38.493Z,579.00
2023-04-18T07:11:38.437Z,538.00
2023-04-18T07:12:38.363Z,526.00
2023-04-18T07:13:38.322Z,546.00
2023-04-18T07:14:38.248Z,563.00
2023-04-18T07:15:38.149Z,598.00
2023-04-18T07:16:38.159Z,609.00
2023-04-18T07:17:38.053Z,534.00
2023-04-18T07:18:38.665Z,602.00
2023-04-18T07:19:38.385Z,659.00
2023-04-18T07:20:37.866Z,576.00
2023-04-18T07:21:37.789Z,649.00
2023-04-18T07:22:37.727Z,593.00
2023-04-18T07:23:37.689Z,724.00
2023-04-18T07:24:37.604Z,651.00
2023-04-18T07:25:37.561Z,582.00
2023-04-18T07:26:37.470Z,539.00
2023-04-18T07:27:37.432Z,563.00
2023-04-18T07:28:37.346Z,578.00
2023-04-18T07:29:37.289Z,559.00
2023-04-18T07:30:37.241Z,615.00
2023-04-18T07:31:37.197Z,570.00
2023-04-18T07:32:37.082Z,632.00
2023-04-18T07:33:37.000Z,596.00
2023-04-18T07:34:36.956Z,582.00
2023-04-18T07:35:36.930Z,612.00
2023-04-18T07:36:36.869Z,595.00
2023-04-18T07:37:36.790Z,665.00
2023-04-18T07:38:36.696Z,667.00
2023-04-18T07:39:36.651Z,683.00
2023-04-18T07:40:36.559Z,668.00
2023-04-18T07:41:36.554Z,662.00
2023-04-18T07:42:36.457Z,711.00
2023-04-18T07:43:36.400Z,769.00
2023-04-18T07:44:36.358Z,754.00
2023-04-18T07:45:36.269Z,665.00
2023-04-18T07:46:36.230Z,633.00
2023-04-18T07:47:36.176Z,704.00
2023-04-18T07:48:36.052Z,704.00
2023-04-18T07:49:36.026Z,642.00
2023-04-18T07:50:35.949Z,624.00
2023-04-18T07:51:35.857Z,644.00
2023-04-18T07:52:37.388Z,600.00
2023-04-18T07:53:35.782Z,549.00
2023-04-18T07:54:35.694Z,594.00
2023-04-18T07:55:35.674Z,622.00
2023-04-18T07:56:35.575Z,670.00
2023-04-18T07:57:35.502Z,730.00
2023-04-18T07:58:35.465Z,799.00
2023-04-18T07:59:35.356Z,833.00
2023-04-18T08:00:35.343Z,788.00
2023-04-18T08:01:35.232Z,905.00
2023-04-18T08:02:35.254Z,922.00
2023-04-18T08:03:35.233Z,799.00
2023-04-18T08:04:35.182Z,776.00
2023-04-18T08:05:35.115Z,778.00
2023-04-18T08:06:34.956Z,737.00
2023-04-18T08:07:34.846Z,801.00
2023-04-18T08:08:34.813Z,815.00
2023-04-18T08:09:34.747Z,796.00
2023-04-18T08:10:34.668Z,845.00
2023-04-18T08:11:34.655Z,940.00
2023-04-18T08:12:34.552Z,914.00
2023-04-18T08:13:34.520Z,1169.00
2023-04-18T08:14:34.451Z,978.00
2023-04-18T08:15:34.379Z,971.00
2023-04-18T08:16:34.444Z,1232.00
2023-04-18T08:17:34.336Z,1210.00
2023-04-18T08:18:34.635Z,1058.00
2023-04-18T08:19:34.106Z,1016.00
2023-04-18T08:20:34.043Z,1048.00
2023-04-18T08:21:33.976Z,971.00
2023-04-18T08:22:33.884Z,1164.00
2023-04-18T08:23:33.874Z,1332.00
2023-04-18T08:24:33.799Z,1151.00
2023-04-18T08:25:33.740Z,1467.00
2023-04-18T08:26:33.824Z,1167.00
2023-04-18T08:27:33.601Z,1071.00
2023-04-18T08:28:33.518Z,1389.00
2023-04-18T08:29:33.502Z,1338.00
2023-04-18T08:30:33.383Z,1286.00
2023-04-18T08:31:33.463Z,1537.00
2023-04-18T08:32:33.303Z,1754.00
2023-04-18T08:33:33.215Z,1266.00
2023-04-18T08:34:33.153Z,1798.00
2023-04-18T08:35:33.055Z,1583.00
2023-04-18T08:36:33.024Z,1822.00
2023-04-18T08:37:32.974Z,1480.00
2023-04-18T08:38:32.962Z,1235.00
2023-04-18T08:39:32.826Z,1401.00
2023-04-18T08:40:32.775Z,2037.00
2023-04-18T08:41:32.705Z,2019.00
2023-04-18T08:42:32.617Z,1755.00
2023-04-18T08:43:32.596Z,1506.00
2023-04-18T08:44:32.566Z,1241.00
2023-04-18T08:45:32.453Z,1811.00
2023-04-18T08:46:33.012Z,1679.00
2023-04-18T08:47:32.409Z,1530.00
2023-04-18T08:48:32.229Z,2284.00
2023-04-18T08:49:53.177Z,1888.00
2023-04-18T08:50:32.132Z,2034.00
2023-04-18T08:51:32.039Z,1928.00
2023-04-18T08:52:32.026Z,1515.00
2023-04-18T08:53:31.973Z,1560.00
2023-04-18T08:54:31.879Z,1457.00
2023-04-18T08:55:31.879Z,1440.00
2023-04-18T08:56:31.776Z,1638.00
2023-04-18T08:57:31.668Z,2207.00
2023-04-18T08:58:31.647Z,1782.00
2023-04-18T08:59:31.557Z,1712.00
2023-04-18T09:00:31.497Z,1915.00
2023-04-18T09:01:31.454Z,1950.00
2023-04-18T09:02:31.495Z,1637.00
2023-04-18T09:03:31.358Z,1564.00
2023-04-18T09:04:31.315Z,1602.00
2023-04-18T09:05:31.223Z,1636.00
2023-04-18T09:06:31.088Z,1894.00
2023-04-18T09:07:52.037Z,1721.00
2023-04-18T09:08:32.422Z,1549.00
2023-04-18T09:09:30.922Z,1479.00
2023-04-18T09:10:30.999Z,1476.00
2023-04-18T09:11:30.814Z,1491.00
2023-04-18T09:12:30.735Z,1695.00
2023-04-18T09:13:30.674Z,2276.00
2023-04-18T09:14:30.606Z,2092.00
2023-04-18T09:15:30.547Z,2643.00
2023-04-18T09:16:30.495Z,3099.00
2023-04-18T09:17:30.477Z,2810.00
2023-04-18T09:18:30.353Z,2537.00
2023-04-18T09:19:30.314Z,2668.00
2023-04-18T09:20:30.206Z,2373.00
2023-04-18T09:21:30.192Z,2012.00
2023-04-18T09:22:30.072Z,2349.00
2023-04-18T09:23:30.028Z,2552.00
2023-04-18T09:24:29.953Z,3509.00
2023-04-18T09:25:50.909Z,3800.00
2023-04-18T09:26:29.849Z,3239.00
2023-04-18T09:27:29.819Z,2964.00
2023-04-18T09:28:29.698Z,3421.00
2023-04-18T09:29:29.660Z,2057.00
2023-04-18T09:30:29.627Z,18710.00
2023-04-18T09:31:29.578Z,11419.00
2023-04-18T09:32:29.651Z,3871.00
2023-04-18T09:33:29.412Z,1373.00
2023-04-18T09:34:29.350Z,5868.00
2023-04-18T09:35:29.249Z,5955.00
2023-04-18T09:36:29.289Z,25788.00
2023-04-18T09:37:29.170Z,5743.00
2023-04-18T09:38:29.069Z,3149.00
2023-04-18T09:39:29.062Z,4773.00
2023-04-18T09:40:28.995Z,3225.00
2023-04-18T09:41:28.927Z,5966.00
2023-04-18T09:42:29.110Z,5281.00
2023-04-18T09:44:37.925Z,5136.00
2023-04-18T09:45:38.907Z,1800.00
2023-04-18T09:46:38.856Z,12768.00
2023-04-18T09:47:38.765Z,11331.00
2023-04-18T09:48:38.687Z,10598.00
2023-04-18T09:49:38.638Z,8480.00
2023-04-18T09:50:38.556Z,7075.00
2023-04-18T09:51:38.506Z,3222.00
2023-04-18T09:52:38.437Z,3468.00
2023-04-18T09:53:38.358Z,4712.00
2023-04-18T09:54:38.301Z,3635.00
2023-04-18T09:55:38.265Z,3322.00
2023-04-18T09:56:38.209Z,2162.00
2023-04-18T09:57:38.115Z,4951.00
2023-04-18T09:58:38.051Z,3488.00
2023-04-18T09:59:38.039Z,2515.00
2023-04-18T10:00:37.933Z,5367.00
2023-04-18T10:01:58.884Z,4199.00
2023-04-18T10:02:37.876Z,3536.00
2023-04-18T10:03:37.884Z,3622.00
2023-04-18T10:04:37.795Z,2807.00
2023-04-18T10:05:37.630Z,2487.00
2023-04-18T10:06:37.557Z,2885.00
2023-04-18T10:07:37.501Z,4690.00
2023-04-18T10:08:37.431Z,3932.00
2023-04-18T10:09:37.379Z,1421.00
2023-04-18T10:10:38.922Z,9862.00
2023-04-18T10:11:37.208Z,2605.00
2023-04-18T10:12:37.143Z,2535.00
2023-04-18T10:13:37.130Z,3087.00
2023-04-18T10:14:37.039Z,3863.00
2023-04-18T10:15:36.997Z,4589.00
2023-04-18T10:16:36.997Z,3503.00
2023-04-18T10:17:36.840Z,2315.00
2023-04-18T10:18:36.802Z,2030.00
2023-04-18T10:20:45.899Z,2117.00
2023-04-18T10:21:46.853Z,2038.00
2023-04-18T10:22:46.763Z,1956.00
2023-04-18T10:23:46.697Z,2251.00
2023-04-18T10:24:46.635Z,2730.00
2023-04-18T10:25:46.600Z,3615.00
2023-04-18T10:26:46.533Z,3070.00
2023-04-18T10:27:46.452Z,4243.00
2023-04-18T10:28:46.355Z,2830.00
2023-04-18T10:29:46.343Z,3003.00
2023-04-18T10:30:46.274Z,3613.00
2023-04-18T10:31:46.275Z,3608.00
2023-04-18T10:32:46.175Z,4022.00
2023-04-18T10:33:52.795Z,5690.00
2023-04-18T10:34:46.011Z,5061.00
2023-04-18T10:35:45.942Z,6396.00
2023-04-18T10:36:45.930Z,4750.00
2023-04-18T10:37:45.820Z,3377.00
2023-04-18T10:38:45.751Z,2581.00
2023-04-18T10:39:45.685Z,2541.00
2023-04-18T10:40:45.645Z,7292.00
2023-04-18T10:41:45.594Z,7266.00
2023-04-18T10:42:45.509Z,4210.00
2023-04-18T10:43:45.446Z,3542.00
2023-04-18T10:44:45.357Z,6873.00
2023-04-18T10:45:45.314Z,4491.00
2023-04-18T10:46:45.278Z,2130.00
2023-04-18T10:47:45.264Z,7073.00
2023-04-18T10:48:45.120Z,7113.00
2023-04-18T10:49:45.080Z,7447.00
2023-04-18T10:50:45.002Z,7559.00
2023-04-18T10:51:44.937Z,2515.00
2023-04-18T10:52:44.898Z,22088.00
2023-04-18T10:53:44.814Z,5562.00
2023-04-18T10:54:44.747Z,4477.00
2023-04-18T10:55:44.715Z,3770.00
2023-04-18T10:56:44.643Z,2802.00
2023-04-18T10:57:44.540Z,2793.00
2023-04-18T10:58:44.494Z,3061.00
2023-04-18T10:59:44.460Z,2964.00
2023-04-18T11:00:44.428Z,2782.00
2023-04-18T11:01:44.326Z,3076.00
2023-04-18T11:02:44.304Z,3056.00
2023-04-18T11:03:44.236Z,3363.00
2023-04-18T11:04:44.133Z,2998.00
2023-04-18T11:05:44.061Z,3097.00
2023-04-18T11:06:43.995Z,3185.00
2023-04-18T11:07:44.101Z,3040.00
2023-04-18T11:08:43.891Z,2550.00
2023-04-18T11:09:45.425Z,2579.00
2023-04-18T11:10:43.721Z,2663.00
2023-04-18T11:11:43.712Z,2477.00
2023-04-18T11:12:43.598Z,2261.00
2023-04-18T11:13:43.580Z,2234.00
2023-04-18T11:14:43.519Z,2061.00
2023-04-18T11:15:43.464Z,1975.00
2023-04-18T11:16:43.437Z,2006.00
2023-04-18T11:17:43.357Z,2063.00
2023-04-18T11:18:43.211Z,2091.00
2023-04-18T11:19:43.217Z,2023.00
2023-04-18T11:20:43.125Z,1990.00
2023-04-18T11:21:43.050Z,1922.00
2023-04-18T11:22:43.016Z,1814.00
2023-04-18T11:23:42.905Z,1733.00
2023-04-18T11:24:42.877Z,1699.00
2023-04-18T11:25:42.933Z,1722.00
2023-04-18T11:26:42.739Z,1735.00
2023-04-18T11:27:42.699Z,1723.00
2023-04-18T11:28:42.613Z,1729.00
2023-04-18T11:29:42.570Z,1674.00
2023-04-18T11:30:42.549Z,1741.00
2023-04-18T11:31:42.482Z,1589.00
2023-04-18T11:32:42.446Z,1536.00
2023-04-18T11:33:42.325Z,1531.00
2023-04-18T11:34:42.258Z,1575.00
2023-04-18T11:35:42.150Z,1662.00
2023-04-18T11:36:42.133Z,1796.00
2023-04-18T11:37:42.351Z,1920.00
2023-04-18T11:38:41.961Z,1791.00
2023-04-18T11:39:41.965Z,1763.00
2023-04-18T11:40:41.852Z,1680.00
2023-04-18T11:41:41.802Z,1705.00
2023-04-18T11:42:41.707Z,1673.00
2023-04-18T11:43:41.678Z,1813.00
2023-04-18T11:44:41.630Z,1898.00
2023-04-18T11:45:41.580Z,2004.00
2023-04-18T11:46:41.482Z,2168.00
2023-04-18T11:47:41.482Z,2410.00
2023-04-18T11:48:41.357Z,2563.00
2023-04-18T11:49:41.315Z,2508.00
2023-04-18T11:50:41.230Z,2554.00
2023-04-18T11:51:41.136Z,2682.00
2023-04-18T11:52:41.178Z,3010.00
2023-04-18T11:53:41.059Z,3348.00
2023-04-18T11:54:40.977Z,3364.00
2023-04-18T11:55:40.928Z,3342.00
2023-04-18T11:56:40.869Z,2969.00
2023-04-18T11:57:40.824Z,2360.00
2023-04-18T11:58:40.752Z,3429.00
2023-04-18T11:59:40.659Z,2650.00
2023-04-18T12:00:40.605Z,2374.00
2023-04-18T12:01:40.577Z,2222.00
2023-04-18T12:02:40.627Z,2541.00
2023-04-18T12:03:40.589Z,2687.00
2023-04-18T12:04:40.553Z,2909.00
2023-04-18T12:05:40.408Z,2319.00
2023-04-18T12:06:40.225Z,2400.00
2023-04-18T12:09:19.044Z,1824.00
2023-04-18T12:10:19.978Z,1882.00
2023-04-18T12:11:19.887Z,1797.00
2023-04-18T12:12:19.875Z,1737.00
2023-04-18T12:13:19.810Z,1634.00
2023-04-18T12:14:19.696Z,1619.00
2023-04-18T12:15:19.656Z,1590.00
2023-04-18T12:16:19.624Z,1532.00
2023-04-18T12:17:19.572Z,1563.00
2023-04-18T12:18:19.472Z,1496.00
2023-04-18T12:19:19.431Z,1542.00
2023-04-18T12:20:19.315Z,1459.00
2023-04-18T12:21:19.286Z,1493.00
2023-04-18T12:22:19.248Z,1518.00
2023-04-18T12:23:19.156Z,1687.00
2023-04-18T12:24:19.123Z,1819.00
2023-04-18T12:25:19.042Z,1935.00
2023-04-18T12:26:18.974Z,2144.00
2023-04-18T12:27:18.962Z,2278.00
2023-04-18T12:28:18.868Z,2147.00
2023-04-18T12:29:18.801Z,2240.00
2023-04-18T12:30:18.722Z,2019.00
2023-04-18T12:31:18.755Z,2136.00
2023-04-18T12:32:18.607Z,2451.00
2023-04-18T12:33:18.556Z,2438.00
2023-04-18T12:34:18.482Z,2478.00
2023-04-18T12:35:18.370Z,2406.00
2023-04-18T12:36:18.310Z,2299.00
2023-04-18T12:37:18.265Z,2256.00
2023-04-18T12:38:18.186Z,1945.00
2023-04-18T12:39:18.145Z,2061.00
2023-04-18T12:40:18.077Z,2175.00
2023-04-18T12:41:17.990Z,2584.00
2023-04-18T12:42:17.994Z,2493.00
2023-04-18T12:43:17.926Z,2931.00
2023-04-18T12:44:17.863Z,2987.00
2023-04-18T12:45:17.796Z,3821.00
2023-04-18T12:46:17.765Z,3372.00
2023-04-18T12:47:17.764Z,3306.00
2023-04-18T12:48:17.578Z,3049.00
2023-04-18T12:49:17.528Z,2866.00
2023-04-18T12:50:17.432Z,2899.00
2023-04-18T12:51:17.393Z,2542.00